Time;durP1;ratioP1;P1;durP2;ratioP2;P2;SDS_P1;SDS_P2;PMS_P1;PMS_P2;Temp;Humidity;BMP_temperature;BMP_pressure;BME280_temperature;BME280_humidity;BME280_pressure;Samples;Min_cycle;Max_cycle;Signal;HPM_P1;HPM_P2
2023/06/24 00:02:17;;;;;;;16.77;15.00;;;615.20;2432.00;;;;;;5032355;28;20116;-82
2023/06/24 00:04:43;;;;;;;20.05;14.13;;;614.90;2432.00;;;;;;5046088;28;20029;-82
2023/06/24 00:07:09;;;;;;;17.80;15.25;;;614.90;2432.00;;;;;;5051713;28;20102;-80
2023/06/24 00:09:35;;;;;;;16.58;13.90;;;614.80;2432.00;;;;;;5051986;28;20035;-80
2023/06/24 00:12:02;;;;;;;21.42;15.60;;;614.90;2432.00;;;;;;5052112;28;20029;-81
2023/06/24 00:14:28;;;;;;;21.10;15.40;;;614.90;2432.00;;;;;;5052057;28;20040;-81
2023/06/24 00:16:54;;;;;;;18.42;14.93;;;614.70;2432.00;;;;;;5051934;28;20552;-81
2023/06/24 00:19:24;;;;;;;23.40;15.57;;;614.50;2432.00;;;;;;5053080;28;20376;-81
2023/06/24 00:21:51;;;;;;;19.35;15.60;;;614.80;2432.00;;;;;;5053383;28;20457;-80
2023/06/24 00:24:25;;;;;;;20.13;15.80;;;614.90;2432.00;;;;;;5055554;28;20436;-81
2023/06/24 00:26:51;;;;;;;19.88;15.25;;;614.90;2432.00;;;;;;5056116;28;20029;-81
2023/06/24 00:29:17;;;;;;;18.20;16.27;;;615.00;2432.00;;;;;;5056118;28;20025;-81
2023/06/24 00:31:43;;;;;;;20.38;16.98;;;615.00;2432.00;;;;;;5055804;28;20469;-83
2023/06/24 00:34:09;;;;;;;20.45;16.00;;;615.10;2432.00;;;;;;5055123;28;20037;-81
2023/06/24 00:36:36;;;;;;;22.88;17.25;;;615.20;2432.00;;;;;;5056081;28;20025;-81
2023/06/24 00:39:05;;;;;;;22.20;17.05;;;615.20;2432.00;;;;;;5055423;28;20028;-80
2023/06/24 00:41:34;;;;;;;20.92;18.05;;;615.20;2432.00;;;;;;5057407;28;20032;-81
2023/06/24 00:44:01;;;;;;;23.70;17.85;;;615.00;2432.00;;;;;;5055770;28;20485;-81
2023/06/24 00:46:27;;;;;;;23.20;17.15;;;614.90;2432.00;;;;;;5055532;28;20357;-81
2023/06/24 00:48:55;;;;;;;21.98;17.38;;;614.60;2432.00;;;;;;5055676;28;20125;-81
2023/06/24 00:51:26;;;;;;;17.88;15.98;;;614.70;2432.00;;;;;;5056131;28;20033;-81
2023/06/24 00:53:52;;;;;;;18.80;16.73;;;614.70;2432.00;;;;;;5039210;28;20057;-82
2023/06/24 00:56:21;;;;;;;19.77;15.48;;;614.70;2432.00;;;;;;5036710;28;20083;-78
2023/06/24 00:58:48;;;;;;;27.50;16.05;;;614.70;2432.00;;;;;;5054204;28;20330;-79
2023/06/24 01:01:14;;;;;;;19.08;15.25;;;614.70;2432.00;;;;;;5036984;28;20060;-81
2023/06/24 01:03:40;;;;;;;20.15;15.32;;;589.70;2432.00;;;;;;5035343;28;20049;-82
2023/06/24 01:06:08;;;;;;;19.63;16.23;;;589.70;2432.00;;;;;;5035046;28;20080;-82
2023/06/24 01:08:34;;;;;;;19.58;16.00;;;614.40;2432.00;;;;;;5035442;28;20029;-81
2023/06/24 01:11:00;;;;;;;25.45;16.98;;;614.40;2432.00;;;;;;5035322;28;20029;-81
2023/06/24 01:13:26;;;;;;;18.95;16.35;;;614.50;2432.00;;;;;;5035181;28;20036;-82
2023/06/24 01:15:52;;;;;;;21.08;17.05;;;614.70;2432.00;;;;;;5035372;28;20029;-82
2023/06/24 01:18:38;;;;;;;20.02;17.30;;;614.70;2432.00;;;;;;5035417;28;20129;-81
2023/06/24 01:21:08;;;;;;;17.38;15.40;;;614.70;2432.00;;;;;;5036199;28;20076;-82
2023/06/24 01:24:12;;;;;;;21.38;17.73;;;614.80;2432.00;;;;;;5036176;28;20029;-82
2023/06/24 01:27:09;;;;;;;20.13;16.08;;;614.50;2432.00;;;;;;5036099;28;20471;-81
2023/06/24 01:29:57;;;;;;;23.83;17.17;;;614.40;2432.00;;;;;;5035454;28;20373;-81
2023/06/24 01:32:36;;;;;;;23.17;16.65;;;614.50;2432.00;;;;;;5035030;28;20045;-81
2023/06/24 01:35:16;;;;;;;22.48;16.48;;;614.60;2432.00;;;;;;5035307;28;20032;-81
2023/06/24 01:37:53;;;;;;;22.48;16.33;;;614.70;2432.00;;;;;;5034910;28;20025;-81
2023/06/24 01:40:28;;;;;;;28.58;17.45;;;614.60;2432.00;;;;;;5034931;28;20074;-82
2023/06/24 01:42:57;;;;;;;19.88;15.98;;;614.60;2432.00;;;;;;5034896;28;20033;-83
2023/06/24 01:45:27;;;;;;;21.30;15.27;;;614.60;2432.00;;;;;;5034743;28;20026;-82
2023/06/24 01:48:22;;;;;;;28.83;19.23;;;614.60;2432.00;;;;;;5035424;28;20029;-82
2023/06/24 01:51:13;;;;;;;27.00;18.05;;;614.40;2432.00;;;;;;5033740;28;20558;-78
2023/06/24 01:53:42;;;;;;;22.23;18.08;;;589.50;2432.00;;;;;;5034662;28;20026;-78
2023/06/24 01:56:12;;;;;;;23.08;17.90;;;589.50;2432.00;;;;;;5034279;28;20415;-79
2023/06/24 01:58:40;;;;;;;22.02;16.38;;;589.60;2432.00;;;;;;5034967;28;20037;-78
2023/06/24 02:01:07;;;;;;;24.38;16.77;;;589.70;2432.00;;;;;;5035789;28;20163;-79
2023/06/24 02:03:34;;;;;;;20.63;17.20;;;589.70;2432.00;;;;;;5035988;28;20369;-79
2023/06/24 02:06:01;;;;;;;23.85;17.30;;;614.40;2432.00;;;;;;5034209;28;20054;-78
2023/06/24 02:08:32;;;;;;;21.40;16.33;;;589.70;2432.00;;;;;;5034077;28;20055;-78
2023/06/24 02:11:01;;;;;;;21.77;16.85;;;614.40;2432.00;;;;;;5034274;28;20126;-79
2023/06/24 02:13:31;;;;;;;18.33;16.20;;;589.70;2432.00;;;;;;5035318;28;20025;-79
2023/06/24 02:15:59;;;;;;;19.85;16.50;;;589.70;2432.00;;;;;;5035278;28;20076;-79
2023/06/24 02:18:27;;;;;;;24.50;17.55;;;614.40;2432.00;;;;;;5035034;28;20022;-79
2023/06/24 02:20:55;;;;;;;31.17;16.25;;;614.50;2432.00;;;;;;5034052;28;20025;-79
2023/06/24 02:23:22;;;;;;;25.02;16.42;;;614.50;2432.00;;;;;;5033730;28;20026;-80
2023/06/24 02:25:49;;;;;;;20.40;14.70;;;614.60;2432.00;;;;;;5035269;28;20025;-79
2023/06/24 02:28:17;;;;;;;19.52;14.23;;;614.70;2432.00;;;;;;5033825;28;20037;-79
2023/06/24 02:30:43;;;;;;;19.30;15.73;;;614.60;2432.00;;;;;;5034849;28;20041;-81
2023/06/24 02:33:11;;;;;;;23.30;16.23;;;614.60;2432.00;;;;;;5033886;28;20025;-81
2023/06/24 02:35:38;;;;;;;23.48;15.25;;;614.60;2432.00;;;;;;5033754;28;20022;-81
2023/06/24 02:38:04;;;;;;;22.95;16.45;;;614.50;2432.00;;;;;;5033507;28;20036;-81
2023/06/24 02:40:30;;;;;;;26.98;14.63;;;589.70;2432.00;;;;;;5034680;28;20034;-80
2023/06/24 02:42:58;;;;;;;22.27;14.57;;;589.70;2432.00;;;;;;5033694;28;20025;-81
2023/06/24 02:45:24;;;;;;;21.48;11.63;;;614.40;2432.00;;;;;;5033093;28;20029;-81
2023/06/24 02:47:51;;;;;;;21.30;12.85;;;614.50;2432.00;;;;;;5032799;28;20385;-81
2023/06/24 02:50:17;;;;;;;26.02;11.25;;;614.70;2432.00;;;;;;5033478;28;20171;-81
2023/06/24 02:52:43;;;;;;;26.20;11.70;;;614.70;2432.00;;;;;;5033234;28;20038;-81
2023/06/24 02:55:09;;;;;;;22.60;11.48;;;614.60;2432.00;;;;;;5035863;28;20388;-81
2023/06/24 02:57:36;;;;;;;24.90;12.55;;;614.70;2432.00;;;;;;5038156;28;20424;-80
2023/06/24 03:00:09;;;;;;;26.38;12.15;;;614.70;2432.00;;;;;;5053169;28;20465;-81
2023/06/24 03:02:35;;;;;;;26.10;13.20;;;614.70;2432.00;;;;;;5053347;28;20025;-80
2023/06/24 03:05:02;;;;;;;21.45;12.95;;;614.70;2432.00;;;;;;5054265;28;20021;-81
2023/06/24 03:07:38;;;;;;;23.77;11.98;;;614.70;2432.00;;;;;;5111463;27;20755;-79
2023/06/24 03:10:05;;;;;;;24.50;13.10;;;614.60;2432.00;;;;;;5110472;28;20036;-79
2023/06/24 03:12:31;;;;;;;27.38;13.73;;;614.50;2432.00;;;;;;5110035;28;20031;-80
2023/06/24 03:14:57;;;;;;;27.38;12.93;;;614.50;2432.00;;;;;;5110304;28;20024;-80
2023/06/24 03:17:24;;;;;;;25.77;13.93;;;614.50;2432.00;;;;;;5110115;28;20034;-79
2023/06/24 03:19:50;;;;;;;25.45;15.23;;;614.50;2432.00;;;;;;5109872;28;20035;-79
2023/06/24 03:22:17;;;;;;;36.17;16.65;;;614.50;2432.00;;;;;;5110093;28;20455;-79
2023/06/24 03:24:43;;;;;;;33.22;16.00;;;614.40;2432.00;;;;;;5111159;28;20024;-80
2023/06/24 03:27:09;;;;;;;23.13;15.55;;;589.70;2432.00;;;;;;5109663;28;20039;-80
2023/06/24 03:29:35;;;;;;;36.15;16.60;;;589.70;2432.00;;;;;;5111229;28;20028;-79
2023/06/24 03:32:00;;;;;;;30.85;16.25;;;589.70;2432.00;;;;;;5110058;28;20024;-79
2023/06/24 03:34:27;;;;;;;37.83;16.42;;;589.70;2432.00;;;;;;5111048;28;20512;-80
2023/06/24 03:36:55;;;;;;;39.55;15.88;;;589.70;2432.00;;;;;;5109761;28;20024;-80
2023/06/24 03:39:22;;;;;;;34.72;16.95;;;589.70;2432.00;;;;;;5109862;28;20028;-80
2023/06/24 03:41:47;;;;;;;38.63;15.52;;;589.70;2432.00;;;;;;5109520;28;20065;-79
2023/06/24 03:44:13;;;;;;;29.35;15.85;;;589.70;2432.00;;;;;;5109644;28;20028;-79
2023/06/24 03:46:39;;;;;;;38.63;16.02;;;589.70;2432.00;;;;;;5110436;28;20024;-79
2023/06/24 03:49:06;;;;;;;33.85;16.75;;;589.70;2432.00;;;;;;5110981;28;20360;-79
2023/06/24 03:51:32;;;;;;;34.15;19.45;;;589.70;2432.00;;;;;;5109690;28;20023;-79
2023/06/24 03:53:57;;;;;;;34.25;17.42;;;589.70;2432.00;;;;;;5109351;28;20024;-80
2023/06/24 03:56:23;;;;;;;33.30;17.65;;;589.70;2432.00;;;;;;5109843;28;20131;-80
2023/06/24 03:58:49;;;;;;;35.28;18.90;;;589.70;2432.00;;;;;;5109688;28;20035;-79
2023/06/24 04:01:18;;;;;;;37.50;18.38;;;589.70;2432.00;;;;;;5111101;28;20098;-80
2023/06/24 04:03:45;;;;;;;42.10;19.60;;;589.70;2432.00;;;;;;5116488;28;20418;-79
2023/06/24 04:06:10;;;;;;;30.40;18.33;;;589.70;2432.00;;;;;;5108919;28;20532;-80
2023/06/24 04:08:39;;;;;;;30.50;18.35;;;589.70;2432.00;;;;;;5109914;28;20106;-79
2023/06/24 04:11:06;;;;;;;43.58;20.27;;;614.40;2432.00;;;;;;5108894;28;20062;-80
2023/06/24 04:13:33;;;;;;;36.20;18.30;;;589.70;2432.00;;;;;;5109008;28;20024;-80
2023/06/24 04:15:58;;;;;;;36.00;19.58;;;589.70;2432.00;;;;;;5108659;28;20031;-79
2023/06/24 04:18:24;;;;;;;38.53;19.45;;;589.70;2432.00;;;;;;5098388;28;20028;-79
2023/06/24 04:20:50;;;;;;;35.10;19.00;;;589.70;2432.00;;;;;;5095293;28;20118;-80
2023/06/24 04:23:16;;;;;;;40.15;19.83;;;614.40;2432.00;;;;;;5094607;28;20020;-79
2023/06/24 04:25:42;;;;;;;31.58;19.27;;;614.40;2432.00;;;;;;5095212;28;20177;-79
2023/06/24 04:28:08;;;;;;;36.08;18.55;;;614.40;2432.00;;;;;;5096141;28;20024;-80
2023/06/24 04:30:38;;;;;;;33.08;19.70;;;614.50;2432.00;;;;;;5094848;28;20024;-80
2023/06/24 04:33:04;;;;;;;36.92;19.38;;;614.40;2432.00;;;;;;5095236;28;20059;-78
2023/06/24 04:35:30;;;;;;;29.80;19.17;;;589.70;2432.00;;;;;;5095845;28;20035;-79
2023/06/24 04:37:56;;;;;;;28.95;18.52;;;589.70;2432.00;;;;;;5095003;28;20029;-80
2023/06/24 04:40:22;;;;;;;38.60;19.60;;;614.40;2432.00;;;;;;5094999;28;20024;-80
2023/06/24 04:42:48;;;;;;;39.45;17.38;;;614.40;2432.00;;;;;;5096187;28;20353;-78
2023/06/24 04:45:14;;;;;;;34.03;19.52;;;614.50;2432.00;;;;;;5094769;28;20028;-80
2023/06/24 04:47:40;;;;;;;40.40;20.15;;;614.50;2432.00;;;;;;5094769;28;20032;-79
2023/06/24 04:50:09;;;;;;;30.92;18.52;;;614.60;2432.00;;;;;;5094543;28;20024;-80
2023/06/24 04:52:35;;;;;;;34.70;18.55;;;614.60;2432.00;;;;;;5095987;28;20029;-81
2023/06/24 04:55:01;;;;;;;30.73;19.48;;;614.70;2432.00;;;;;;5094690;28;20027;-80
2023/06/24 04:57:30;;;;;;;27.70;18.60;;;614.70;2432.00;;;;;;5094236;28;20468;-79
2023/06/24 04:59:56;;;;;;;39.30;18.35;;;614.80;2432.00;;;;;;5094501;28;20031;-80
2023/06/24 05:02:22;;;;;;;33.28;18.63;;;614.50;2432.00;;;;;;5094584;28;20064;-79
2023/06/24 05:04:49;;;;;;;34.13;18.42;;;614.90;2432.00;;;;;;5095854;28;20106;-79
2023/06/24 05:07:14;;;;;;;36.47;18.52;;;614.90;2432.00;;;;;;5095771;28;20131;-81
2023/06/24 05:09:40;;;;;;;27.00;18.80;;;615.00;2432.00;;;;;;5094553;28;20586;-82
2023/06/24 05:12:07;;;;;;;39.83;17.75;;;615.00;2432.00;;;;;;5094007;28;20212;-83
2023/06/24 05:14:36;;;;;;;33.22;19.75;;;614.90;2432.00;;;;;;5095524;28;20115;-82
2023/06/24 05:17:05;;;;;;;28.25;18.27;;;614.90;2432.00;;;;;;5094323;28;20032;-81
2023/06/24 05:19:31;;;;;;;28.35;18.58;;;614.90;2432.00;;;;;;5094016;28;20024;-81
2023/06/24 05:21:57;;;;;;;35.88;19.15;;;614.90;2432.00;;;;;;5095505;28;20028;-79
2023/06/24 05:24:22;;;;;;;37.08;18.25;;;614.90;2432.00;;;;;;5095087;28;20070;-82
2023/06/24 05:26:49;;;;;;;34.70;17.80;;;614.80;2432.00;;;;;;5093683;28;20407;-82
2023/06/24 05:29:16;;;;;;;30.20;17.55;;;614.90;2432.00;;;;;;5093151;28;20028;-80
2023/06/24 05:31:42;;;;;;;31.70;18.15;;;614.90;2432.00;;;;;;5095234;28;20137;-80
2023/06/24 05:34:08;;;;;;;40.65;17.17;;;614.90;2432.00;;;;;;5093898;28;20042;-80
2023/06/24 05:36:34;;;;;;;36.95;18.77;;;615.00;2432.00;;;;;;5094044;28;20031;-80
2023/06/24 05:39:00;;;;;;;29.85;17.08;;;615.00;2432.00;;;;;;5093531;28;20054;-80
2023/06/24 05:41:26;;;;;;;35.88;16.90;;;615.10;2432.00;;;;;;5093750;28;20020;-80
2023/06/24 05:44:06;;;;;;;33.47;16.30;;;615.00;2432.00;;;;;;5093850;28;20111;-81
2023/06/24 05:46:32;;;;;;;34.15;16.80;;;615.10;2432.00;;;;;;5093920;28;20028;-82
2023/06/24 05:48:58;;;;;;;26.92;16.38;;;615.10;2432.00;;;;;;5093669;28;20020;-82
2023/06/24 05:51:24;;;;;;;32.75;16.70;;;615.10;2432.00;;;;;;5095226;28;20081;-80
2023/06/24 05:53:49;;;;;;;27.50;15.65;;;615.20;2432.00;;;;;;5093300;28;20049;-80
2023/06/24 05:56:15;;;;;;;33.30;15.93;;;615.20;2432.00;;;;;;5094135;28;20028;-80
2023/06/24 05:58:41;;;;;;;26.98;16.45;;;615.20;2432.00;;;;;;5093624;28;20020;-81
2023/06/24 06:01:10;;;;;;;30.95;16.60;;;615.20;2432.00;;;;;;5093189;28;20036;-79
2023/06/24 06:03:36;;;;;;;35.13;14.07;;;615.20;2432.00;;;;;;5093623;28;20024;-82
2023/06/24 06:06:02;;;;;;;30.13;14.82;;;615.20;2432.00;;;;;;5093011;28;20515;-82
2023/06/24 06:08:28;;;;;;;31.85;15.57;;;615.30;2432.00;;;;;;5093039;28;20024;-82
2023/06/24 06:10:54;;;;;;;31.73;15.93;;;615.30;2432.00;;;;;;5093384;28;20032;-81
2023/06/24 06:13:19;;;;;;;27.52;15.88;;;615.30;2432.00;;;;;;5093335;28;20523;-82
2023/06/24 06:15:45;;;;;;;23.90;14.48;;;615.30;2432.00;;;;;;5094659;28;20164;-82
2023/06/24 06:18:12;;;;;;;24.20;15.27;;;615.30;2432.00;;;;;;5093333;28;20146;-82
2023/06/24 06:20:38;;;;;;;31.88;16.08;;;615.30;2432.00;;;;;;5092850;28;20028;-82
2023/06/24 06:23:03;;;;;;;27.63;15.32;;;640.00;2432.00;;;;;;5094570;28;20020;-82
2023/06/24 06:25:29;;;;;;;21.05;14.60;;;640.10;2432.00;;;;;;5093056;28;20020;-82
2023/06/24 06:27:55;;;;;;;30.00;15.15;;;640.10;2432.00;;;;;;5092805;28;20066;-82
2023/06/24 06:30:21;;;;;;;29.27;13.90;;;640.20;2432.00;;;;;;5093036;28;20028;-81
2023/06/24 06:32:47;;;;;;;26.67;13.98;;;640.20;2432.00;;;;;;5092928;28;20032;-82
2023/06/24 06:35:12;;;;;;;25.48;13.98;;;640.30;2432.00;;;;;;5092626;28;20543;-82
2023/06/24 06:37:38;;;;;;;22.65;13.90;;;640.40;2432.00;;;;;;5092943;28;20379;-82
2023/06/24 06:40:05;;;;;;;22.75;14.07;;;640.50;2432.00;;;;;;5094032;28;20383;-83
2023/06/24 06:42:30;;;;;;;30.42;14.20;;;640.50;2432.00;;;;;;5092335;28;20028;-83
2023/06/24 06:44:56;;;;;;;30.13;13.95;;;640.60;2432.00;;;;;;5093719;28;20433;-81
2023/06/24 06:47:22;;;;;;;21.98;14.18;;;640.60;2432.00;;;;;;5092635;28;20032;-82
2023/06/24 06:49:48;;;;;;;25.17;15.30;;;640.70;2432.00;;;;;;5092633;28;20374;-81
2023/06/24 06:52:14;;;;;;;27.02;14.55;;;640.70;2432.00;;;;;;5092668;28;20035;-80
2023/06/24 06:54:40;;;;;;;21.75;14.38;;;640.80;2432.00;;;;;;5092700;28;20450;-82
2023/06/24 06:57:06;;;;;;;21.33;15.10;;;640.90;2432.00;;;;;;5093697;28;20059;-82
2023/06/24 06:59:32;;;;;;;27.83;13.82;;;665.60;2432.00;;;;;;5092681;28;20032;-83
2023/06/24 07:01:58;;;;;;;24.27;15.40;;;640.90;2432.00;;;;;;5092788;28;20020;-82
2023/06/24 07:04:24;;;;;;;30.08;14.98;;;665.80;2432.00;;;;;;5114148;28;20043;-84
2023/06/24 07:06:50;;;;;;;24.15;15.02;;;665.90;2432.00;;;;;;5110122;28;20087;-81
2023/06/24 07:09:16;;;;;;;23.80;14.18;;;665.90;2432.00;;;;;;5093986;28;20024;-82
2023/06/24 07:11:43;;;;;;;30.05;15.40;;;666.00;2432.00;;;;;;5093489;28;20371;-81
2023/06/24 07:14:09;;;;;;;30.50;14.70;;;666.10;2432.00;;;;;;5093645;28;20021;-82
2023/06/24 07:16:35;;;;;;;24.63;15.82;;;666.20;2432.00;;;;;;5092064;28;20024;-79
2023/06/24 07:19:01;;;;;;;23.48;15.10;;;666.10;2432.00;;;;;;5092427;28;20114;-82
2023/06/24 07:21:26;;;;;;;26.45;14.70;;;666.40;2432.00;;;;;;5093597;28;20059;-82
2023/06/24 07:23:52;;;;;;;25.20;14.82;;;691.20;2432.00;;;;;;5093256;28;20031;-79
2023/06/24 07:26:18;;;;;;;22.00;14.98;;;691.20;2432.00;;;;;;5093663;28;20032;-82
2023/06/24 07:28:44;;;;;;;23.25;15.15;;;691.20;2432.00;;;;;;5093812;28;20103;-83
2023/06/24 07:31:09;;;;;;;24.85;15.05;;;691.20;2432.00;;;;;;5092221;28;20021;-82
2023/06/24 07:33:36;;;;;;;25.02;15.88;;;691.30;2432.00;;;;;;5092153;28;20032;-79
2023/06/24 07:36:01;;;;;;;26.73;15.57;;;691.60;2432.00;;;;;;5093530;28;20107;-80
2023/06/24 07:38:29;;;;;;;31.20;15.65;;;691.60;2432.00;;;;;;5091768;28;20467;-79
2023/06/24 07:40:55;;;;;;;27.08;15.85;;;691.70;2432.00;;;;;;5092204;28;20077;-79
2023/06/24 07:43:21;;;;;;;20.85;15.15;;;691.90;2432.00;;;;;;5092147;28;20027;-80
2023/06/24 07:45:47;;;;;;;24.85;15.60;;;692.10;2432.00;;;;;;5092963;28;20042;-80
2023/06/24 07:48:13;;;;;;;27.13;16.33;;;716.90;2432.00;;;;;;5092037;28;20024;-79
2023/06/24 07:50:39;;;;;;;24.40;16.10;;;717.00;2432.00;;;;;;5092058;28;20028;-80
2023/06/24 07:53:05;;;;;;;29.25;15.18;;;716.90;2432.00;;;;;;5093411;28;20024;-79
2023/06/24 07:55:31;;;;;;;32.40;15.20;;;717.00;2432.00;;;;;;5095879;28;20027;-78
2023/06/24 07:57:58;;;;;;;20.80;15.45;;;716.80;2432.00;;;;;;5095938;28;20375;-79
2023/06/24 08:00:24;;;;;;;23.00;15.15;;;716.80;2432.00;;;;;;5095508;28;20035;-79
2023/06/24 08:02:50;;;;;;;25.38;15.35;;;716.80;2432.00;;;;;;5094668;28;20375;-78
2023/06/24 08:05:18;;;;;;;23.50;14.88;;;716.80;2432.00;;;;;;5076435;28;20415;-80
2023/06/24 08:07:44;;;;;;;23.25;15.63;;;716.80;2432.00;;;;;;5080548;28;20418;-81
2023/06/24 08:10:10;;;;;;;24.83;15.32;;;716.80;2432.00;;;;;;5093996;28;20028;-80
2023/06/24 08:12:36;;;;;;;31.58;16.23;;;692.10;2432.00;;;;;;5095294;28;20031;-79
2023/06/24 08:15:02;;;;;;;22.83;15.27;;;691.90;2432.00;;;;;;5096607;28;20028;-79
2023/06/24 08:17:28;;;;;;;23.50;16.05;;;692.00;2432.00;;;;;;5096557;28;20035;-81
2023/06/24 08:19:54;;;;;;;25.02;15.63;;;692.10;2432.00;;;;;;5095457;28;20024;-79
2023/06/24 08:22:19;;;;;;;21.15;15.77;;;692.10;2432.00;;;;;;5095469;28;20050;-79
2023/06/24 08:24:45;;;;;;;23.20;16.08;;;692.10;2432.00;;;;;;5097888;28;20375;-79
2023/06/24 08:27:11;;;;;;;26.83;16.52;;;692.10;2432.00;;;;;;5097190;28;20028;-79
2023/06/24 08:29:37;;;;;;;31.02;17.33;;;691.80;2432.00;;;;;;5097992;28;20464;-79
2023/06/24 08:32:06;;;;;;;22.55;16.48;;;691.90;2432.00;;;;;;5097991;28;20028;-80
2023/06/24 08:34:32;;;;;;;26.85;16.17;;;691.80;2432.00;;;;;;5095348;28;20024;-81
2023/06/24 08:36:58;;;;;;;32.20;17.77;;;691.60;2432.00;;;;;;5095190;28;20519;-81
2023/06/24 08:39:24;;;;;;;26.95;16.55;;;691.80;2432.00;;;;;;5095380;28;20117;-81
2023/06/24 08:41:50;;;;;;;22.75;15.95;;;691.80;2432.00;;;;;;5094856;28;20024;-79
2023/06/24 08:44:15;;;;;;;27.10;16.80;;;691.80;2432.00;;;;;;5095290;28;20032;-80
2023/06/24 08:46:41;;;;;;;26.33;17.42;;;691.70;2432.00;;;;;;5095136;28;20043;-81
2023/06/24 08:49:22;;;;;;;25.48;17.35;;;691.70;2432.00;;;;;;5095087;28;20467;-81
2023/06/24 08:52:07;;;;;;;26.52;19.13;;;691.80;2432.00;;;;;;5095078;28;20028;-81
2023/06/24 08:54:36;;;;;;;30.75;19.90;;;691.80;2432.00;;;;;;5094713;28;20028;-81
2023/06/24 08:57:05;;;;;;;27.40;16.83;;;691.80;2432.00;;;;;;5094971;28;20058;-80
2023/06/24 08:59:33;;;;;;;20.35;15.70;;;691.80;2432.00;;;;;;5094968;28;20028;-81
2023/06/24 09:01:59;;;;;;;26.15;15.95;;;691.80;2432.00;;;;;;5094548;28;20020;-80
2023/06/24 09:04:25;;;;;;;22.10;16.88;;;691.60;2432.00;;;;;;5094554;28;20021;-80
2023/06/24 09:06:50;;;;;;;29.02;16.90;;;691.50;2432.00;;;;;;5094279;28;20484;-81
2023/06/24 09:09:20;;;;;;;23.00;16.48;;;691.60;2432.00;;;;;;5094939;28;20054;-82
2023/06/24 09:11:57;;;;;;;31.83;19.52;;;691.50;2432.00;;;;;;5094769;28;20122;-80
2023/06/24 09:14:29;;;;;;;22.98;18.48;;;691.40;2432.00;;;;;;5094653;28;20146;-80
2023/06/24 09:16:58;;;;;;;28.23;18.33;;;691.40;2432.00;;;;;;5091764;28;20028;-80
2023/06/24 09:19:28;;;;;;;25.02;18.20;;;691.40;2432.00;;;;;;5094554;28;20039;-80
2023/06/24 09:21:53;;;;;;;33.22;20.65;;;691.40;2432.00;;;;;;5094316;28;20081;-81
2023/06/24 09:24:19;;;;;;;32.50;20.30;;;691.40;2432.00;;;;;;5094058;28;20414;-78
2023/06/24 09:26:45;;;;;;;30.25;19.55;;;691.40;2432.00;;;;;;5094332;28;20059;-79
2023/06/24 09:29:14;;;;;;;28.98;19.02;;;691.40;2432.00;;;;;;5095392;28;20031;-78
2023/06/24 09:31:52;;;;;;;25.75;19.70;;;666.50;2432.00;;;;;;5095613;28;20032;-80
2023/06/24 09:34:19;;;;;;;28.63;18.25;;;691.50;2432.00;;;;;;5094899;28;20073;-79
2023/06/24 09:36:50;;;;;;;33.90;21.88;;;691.60;2432.00;;;;;;5093595;28;20535;-80
2023/06/24 09:39:16;;;;;;;41.80;22.33;;;691.50;2432.00;;;;;;5080951;28;20036;-81
2023/06/24 09:41:45;;;;;;;29.65;22.33;;;691.50;2432.00;;;;;;5073600;28;20020;-77
2023/06/24 09:44:11;;;;;;;36.20;21.65;;;691.60;2432.00;;;;;;5073339;28;20036;-78
2023/06/24 09:46:42;;;;;;;27.90;19.58;;;691.70;2432.00;;;;;;5088333;28;20036;-79
2023/06/24 09:49:08;;;;;;;28.23;21.07;;;691.50;2432.00;;;;;;5073593;28;20067;-78
2023/06/24 09:51:39;;;;;;;32.22;21.27;;;691.40;2432.00;;;;;;5073103;28;20060;-79
2023/06/24 09:54:09;;;;;;;27.35;20.10;;;691.50;2432.00;;;;;;5073298;28;20028;-79
2023/06/24 09:56:43;;;;;;;28.42;19.77;;;691.40;2432.00;;;;;;5091085;28;20035;-79
2023/06/24 09:59:11;;;;;;;26.20;20.77;;;691.40;2432.00;;;;;;5094210;28;20053;-80
2023/06/24 10:01:39;;;;;;;31.17;21.58;;;691.40;2432.00;;;;;;5092927;28;20032;-81
2023/06/24 10:04:07;;;;;;;32.90;21.10;;;691.70;2432.00;;;;;;5096715;28;20034;-80
2023/06/24 10:06:34;;;;;;;30.75;21.45;;;716.80;2432.00;;;;;;5103898;28;20084;-81
2023/06/24 10:09:00;;;;;;;25.48;20.52;;;716.90;2432.00;;;;;;5094571;28;20016;-80
2023/06/24 10:11:26;;;;;;;28.70;22.13;;;716.80;2432.00;;;;;;5086450;28;20028;-79
2023/06/24 10:13:53;;;;;;;33.20;23.02;;;691.90;2432.00;;;;;;5093079;28;20020;-81
2023/06/24 10:16:19;;;;;;;28.55;22.17;;;691.70;2432.00;;;;;;5092559;28;20044;-79
2023/06/24 10:18:46;;;;;;;29.33;21.10;;;691.60;2432.00;;;;;;5094112;28;20035;-82
2023/06/24 10:21:15;;;;;;;29.08;21.95;;;691.80;2432.00;;;;;;5093194;28;20027;-78
2023/06/24 10:23:49;;;;;;;28.90;21.08;;;691.80;2432.00;;;;;;5092098;28;20024;-79
2023/06/24 10:26:29;;;;;;;23.33;19.77;;;692.10;2432.00;;;;;;5092406;28;20023;-78
2023/06/24 10:29:07;;;;;;;34.97;20.20;;;716.90;2432.00;;;;;;5092620;28;20024;-78
2023/06/24 10:31:39;;;;;;;30.75;18.48;;;717.10;2432.00;;;;;;5090910;28;20028;-79
2023/06/24 10:34:22;;;;;;;;;;;717.10;2432.00;;;;;;5094030;28;20024;-80
2023/06/24 10:37:02;;;;;;;32.72;19.08;;;717.20;2432.00;;;;;;5093754;28;19911;-79
2023/06/24 10:39:59;;;;;;;27.35;18.17;;;717.40;2432.00;;;;;;5091727;28;20028;-77
2023/06/24 10:42:31;;;;;;;30.58;19.27;;;717.50;2432.00;;;;;;5093474;28;20048;-77
2023/06/24 10:45:15;;;;;;;23.40;18.70;;;742.40;2432.00;;;;;;5092423;28;20376;-77
2023/06/24 10:47:42;;;;;;;23.27;17.63;;;742.50;2432.00;;;;;;5092364;28;20071;-77
2023/06/24 10:50:10;;;;;;;21.77;18.17;;;742.80;2432.00;;;;;;5093820;28;20058;-78
2023/06/24 10:52:40;;;;;;;26.05;18.80;;;743.10;2432.00;;;;;;5092674;28;20020;-77
2023/06/24 10:55:07;;;;;;;29.23;19.60;;;743.30;2432.00;;;;;;5093937;28;20061;-77
2023/06/24 10:57:33;;;;;;;24.33;19.45;;;768.10;2432.00;;;;;;5094148;28;20165;-77
2023/06/24 11:00:00;;;;;;;26.27;18.52;;;768.00;2432.00;;;;;;5093943;28;20016;-77
2023/06/24 11:02:27;;;;;;;35.05;18.63;;;768.40;2432.00;;;;;;5092117;28;20024;-77
2023/06/24 11:05:01;;;;;;;28.42;19.65;;;768.60;2432.00;;;;;;5092394;28;20440;-77
2023/06/24 11:07:30;;;;;;;24.67;19.42;;;743.20;2432.00;;;;;;5092832;28;20047;-76
2023/06/24 11:09:57;;;;;;;24.35;17.88;;;743.20;2432.00;;;;;;5092205;28;20361;-78
2023/06/24 11:12:30;;;;;;;26.95;20.33;;;768.40;2432.00;;;;;;5091541;28;20024;-79
2023/06/24 11:15:07;;;;;;;28.17;20.40;;;768.40;2432.00;;;;;;5091777;28;20024;-79
2023/06/24 11:17:35;;;;;;;27.95;19.77;;;768.90;2432.00;;;;;;5092351;28;20054;-81
2023/06/24 11:20:02;;;;;;;27.70;20.20;;;793.60;2432.00;;;;;;5091865;28;20112;-80
2023/06/24 11:22:28;;;;;;;30.23;20.55;;;768.90;2432.00;;;;;;5091901;28;20029;-80
2023/06/24 11:24:55;;;;;;;29.63;20.90;;;768.90;2432.00;;;;;;5092299;28;20119;-78
2023/06/24 11:27:29;;;;;;;23.45;18.83;;;794.20;2432.00;;;;;;5092646;28;20032;-79
2023/06/24 11:29:58;;;;;;;30.80;19.90;;;793.90;2432.00;;;;;;5096028;28;20042;-80
2023/06/24 11:32:24;;;;;;;25.55;18.70;;;794.10;2432.00;;;;;;5094157;28;20032;-81
2023/06/24 11:34:50;;;;;;;28.02;19.15;;;768.90;2432.00;;;;;;5076038;28;20070;-83
2023/06/24 11:37:18;;;;;;;24.67;19.80;;;768.90;2432.00;;;;;;5075907;28;20036;-80
2023/06/24 11:39:45;;;;;;;29.08;19.50;;;768.90;2432.00;;;;;;5077417;28;20044;-78
2023/06/24 11:42:11;;;;;;;29.23;20.23;;;768.80;2432.00;;;;;;5075768;28;20111;-78
2023/06/24 11:44:43;;;;;;;22.65;17.77;;;793.70;2432.00;;;;;;5084837;28;20028;-78
2023/06/24 11:47:10;;;;;;;30.55;18.00;;;794.00;2432.00;;;;;;5095791;28;20038;-78
2023/06/24 11:49:55;;;;;;;27.63;19.52;;;794.20;2432.00;;;;;;5095622;28;20024;-79
2023/06/24 11:52:39;;;;;;;23.67;19.20;;;794.30;2432.00;;;;;;5096847;28;20430;-77
2023/06/24 11:55:12;;;;;;;31.80;20.73;;;794.50;2432.00;;;;;;5096158;28;20387;-77
2023/06/24 11:58:09;;;;;;;22.30;19.75;;;794.50;2432.00;;;;;;5094924;28;20142;-80
2023/06/24 12:00:46;;;;;;;32.92;20.48;;;794.50;2432.00;;;;;;5056119;28;20117;-79
2023/06/24 12:03:12;;;;;;;32.00;21.40;;;794.50;2432.00;;;;;;5056753;28;20074;-77
2023/06/24 12:05:40;;;;;;;29.10;20.27;;;819.20;2432.00;;;;;;5055857;28;20040;-80